Time;durP1;ratioP1;P1;durP2;ratioP2;P2;SDS_P1;SDS_P2;PMS_P1;PMS_P2;Temp;Humidity;BMP_temperature;BMP_pressure;BME280_temperature;BME280_humidity;BME280_pressure;Samples;Min_cycle;Max_cycle;Signal;HPM_P1;HPM_P2
2024/02/13 00:01:13;;;;;;;;;;;;;;;;;;4968807;28;5142;-65
2024/02/13 00:03:39;;;;;;;;;;;;;;;;;;4969230;28;5088;-65
2024/02/13 00:06:04;;;;;;;;;;;;;;;;;;4951245;28;1280;-66
2024/02/13 00:08:30;;;;;;;;;;;;;;;;;;4960728;28;5012;-63
2024/02/13 00:10:55;;;;;;;;;;;;;;;;;;4957296;28;4551;-64
2024/02/13 00:13:20;;;;;;;;;;;;;;;;;;4960707;28;5146;-65
2024/02/13 00:15:46;;;;;;;;;;;;;;;;;;4960605;28;4771;-66
2024/02/13 00:18:11;;;;;;;;;;;;;;;;;;4961554;28;5129;-66
2024/02/13 00:20:36;;;;;;;;;;;;;;;;;;4965395;28;3448;-66
2024/02/13 00:23:03;;;;;;;;;;;;;;;;;;4963636;28;5093;-66
2024/02/13 00:25:28;;;;;;;;;;;;;;;;;;4963805;28;5137;-62
2024/02/13 00:27:54;;;;;;;;;;;;;;;;;;4957268;28;5431;-65
2024/02/13 00:30:19;;;;;;;;;;;;;;;;;;4961593;28;5193;-63
2024/02/13 00:32:44;;;;;;;;;;;;;;;;;;4966879;28;3397;-66
2024/02/13 00:35:10;;;;;;;;;;;;;;;;;;4964590;28;5860;-64
2024/02/13 00:37:36;;;;;;;;;;;;;;;;;;4965063;28;5110;-65
2024/02/13 00:40:05;;;;;;;;;;;;;;;;;;4964405;28;4776;-66
2024/02/13 00:42:35;;;;;;;;;;;;;;;;;;4964005;28;5190;-66
2024/02/13 00:45:03;;;;;;;;;;;;;;;;;;4965008;28;1611;-64
2024/02/13 00:47:28;;;;;;;;;;;;;;;;;;4929311;28;4513;-65
2024/02/13 00:49:54;;;;;;;;;;;;;;;;;;4960709;28;4521;-65
2024/02/13 00:52:19;;;;;;;;;;;;;;;;;;4964536;28;5168;-65
2024/02/13 00:54:45;;;;;;;;;;;;;;;;;;4965837;28;5009;-63
2024/02/13 00:57:10;;;;;;;;;;;;;;;;;;4965840;28;5142;-62
2024/02/13 00:59:36;;;;;;;;;;;;;;;;;;4963573;28;3578;-66
2024/02/13 01:02:01;;;;;;;;;;;;;;;;;;4964563;28;5117;-64
2024/02/13 01:04:26;;;;;;;;;;;;;;;;;;4963552;28;5955;-65
2024/02/13 01:06:52;;;;;;;;;;;;;;;;;;4963142;28;5239;-65
2024/02/13 01:09:18;;;;;;;;;;;;;;;;;;4957483;28;4787;-65
2024/02/13 01:11:43;;;;;;;;;;;;;;;;;;4967478;28;2323;-65
2024/02/13 01:14:09;;;;;;;;;;;;;;;;;;4960958;28;4743;-65
2024/02/13 01:16:34;;;;;;;;;;;;;;;;;;4963967;28;5092;-65
2024/02/13 01:19:00;;;;;;;;;;;;;;;;;;4963460;28;5106;-64
2024/02/13 01:21:25;;;;;;;;;;;;;;;;;;4962959;28;5248;-65
2024/02/13 01:23:51;;;;;;;;;;;;;;;;;;4966648;28;3443;-62
2024/02/13 01:26:19;;;;;;;;;;;;;;;;;;4960549;28;5078;-65
2024/02/13 01:28:45;;;;;;;;;;;;;;;;;;4963416;28;4990;-66
2024/02/13 01:31:11;;;;;;;;;;;;;;;;;;4963263;28;5006;-66
2024/02/13 01:33:36;;;;;;;;;;;;;;;;;;4965291;28;4643;-66
2024/02/13 01:36:03;;;;;;;;;;;;;;;;;;4962222;28;3357;-66
2024/02/13 01:38:30;;;;;;;;;;;;;;;;;;4968067;28;5005;-65
2024/02/13 01:40:55;;;;;;;;;;;;;;;;;;4963981;28;5140;-65
2024/02/13 01:43:22;;;;;;;;;;;;;;;;;;4959702;28;5086;-66
2024/02/13 01:45:48;;;;;;;;;;;;;;;;;;4960141;28;5182;-64
2024/02/13 01:48:14;;;;;;;;;;;;;;;;;;4963461;28;4536;-66
2024/02/13 01:50:40;;;;;;;;;;;;;;;;;;4948209;28;3275;-61
2024/02/13 01:53:05;;;;;;;;;;;;;;;;;;4962667;28;4603;-64
2024/02/13 01:55:30;;;;;;;;;;;;;;;;;;4947252;28;5655;-64
2024/02/13 01:57:57;;;;;;;;;;;;;;;;;;4947772;28;5012;-65
2024/02/13 02:00:24;;;;;;;;;;;;;;;;;;4961920;28;4621;-62
2024/02/13 02:02:49;;;;;;;;;;;;;;;;;;4963412;28;3453;-65
2024/02/13 02:05:15;;;;;;;;;;;;;;;;;;4962089;28;5071;-64
2024/02/13 02:07:40;;;;;;;;;;;;;;;;;;4963999;28;5106;-62
2024/02/13 02:10:07;;;;;;;;;;;;;;;;;;4948205;28;5508;-64
2024/02/13 02:12:34;;;;;;;;;;;;;;;;;;4962861;28;5223;-65
2024/02/13 02:15:00;;;;;;;;;;;;;;;;;;4959701;28;3385;-64
2024/02/13 02:17:25;;;;;;;;;;;;;;;;;;4962269;28;4848;-64
2024/02/13 02:19:51;;;;;;;;;;;;;;;;;;4967083;28;4623;-65
2024/02/13 02:22:16;;;;;;;;;;;;;;;;;;4964313;28;5239;-62
2024/02/13 02:24:42;;;;;;;;;;;;;;;;;;4966478;28;5106;-64
2024/02/13 02:27:07;;;;;;;;;;;;;;;;;;4967054;28;3455;-65
2024/02/13 02:29:32;;;;;;;;;;;;;;;;;;4958584;28;5043;-65
2024/02/13 02:31:58;;;;;;;;;;;;;;;;;;4960411;28;4808;-64
2024/02/13 02:34:23;;;;;;;;;;;;;;;;;;4969587;28;4842;-64
2024/02/13 02:36:50;;;;;;;;;;;;;;;;;;4945258;28;5221;-64
2024/02/13 02:39:19;;;;;;;;;;;;;;;;;;4958369;28;5380;-64
2024/02/13 02:41:44;;;;;;;;;;;;;;;;;;4961855;28;3569;-64
2024/02/13 02:44:09;;;;;;;;;;;;;;;;;;4961652;28;4619;-65
2024/02/13 02:46:35;;;;;;;;;;;;;;;;;;4963489;28;4662;-64
2024/02/13 02:49:00;;;;;;;;;;;;;;;;;;4965895;28;4558;-62
2024/02/13 02:51:26;;;;;;;;;;;;;;;;;;4949300;28;5150;-65
2024/02/13 02:53:51;;;;;;;;;;;;;;;;;;4947312;28;3445;-63
2024/02/13 02:56:17;;;;;;;;;;;;;;;;;;4960825;28;5103;-64
2024/02/13 02:58:42;;;;;;;;;;;;;;;;;;4961821;28;5093;-64
2024/02/13 03:01:08;;;;;;;;;;;;;;;;;;4965459;28;4630;-64
2024/02/13 03:03:34;;;;;;;;;;;;;;;;;;4955497;28;4679;-64
2024/02/13 03:05:59;;;;;;;;;;;;;;;;;;4965145;28;3570;-64
2024/02/13 03:08:25;;;;;;;;;;;;;;;;;;4966558;28;5128;-63
2024/02/13 03:10:50;;;;;;;;;;;;;;;;;;4959815;28;4954;-65
2024/02/13 03:13:16;;;;;;;;;;;;;;;;;;4934164;28;5247;-64
2024/02/13 03:15:41;;;;;;;;;;;;;;;;;;4964875;28;4737;-64
2024/02/13 03:18:07;;;;;;;;;;;;;;;;;;4971795;28;1185;-64
2024/02/13 03:20:33;;;;;;;;;;;;;;;;;;4965396;28;4655;-64
2024/02/13 03:22:58;;;;;;;;;;;;;;;;;;4959643;28;4549;-64
2024/02/13 03:25:24;;;;;;;;;;;;;;;;;;4962144;28;4798;-64
2024/02/13 03:27:49;;;;;;;;;;;;;;;;;;4966872;28;5210;-65
2024/02/13 03:30:14;;;;;;;;;;;;;;;;;;4965612;28;5131;-65
2024/02/13 03:32:40;;;;;;;;;;;;;;;;;;4966379;28;3417;-64
2024/02/13 03:35:06;;;;;;;;;;;;;;;;;;4969431;28;4923;-64
2024/02/13 03:37:31;;;;;;;;;;;;;;;;;;4968467;28;4797;-65
2024/02/13 03:39:57;;;;;;;;;;;;;;;;;;4967021;28;5148;-65
2024/02/13 03:42:22;;;;;;;;;;;;;;;;;;4962306;28;5082;-66
2024/02/13 03:44:47;;;;;;;;;;;;;;;;;;4967901;28;3309;-64
2024/02/13 03:47:13;;;;;;;;;;;;;;;;;;4954042;28;5165;-65
2024/02/13 03:49:38;;;;;;;;;;;;;;;;;;4964566;28;5283;-64
2024/02/13 03:52:04;;;;;;;;;;;;;;;;;;4966497;28;5144;-64
2024/02/13 03:54:29;;;;;;;;;;;;;;;;;;4962487;28;5122;-66
2024/02/13 03:56:55;;;;;;;;;;;;;;;;;;4965345;28;3361;-65
2024/02/13 03:59:20;;;;;;;;;;;;;;;;;;4961856;28;5152;-66
2024/02/13 04:01:46;;;;;;;;;;;;;;;;;;4968819;28;4539;-66
2024/02/13 04:04:11;;;;;;;;;;;;;;;;;;4959247;28;4561;-65
2024/02/13 04:06:36;;;;;;;;;;;;;;;;;;4933745;28;5193;-66
2024/02/13 04:09:02;;;;;;;;;;;;;;;;;;4959037;28;3457;-64
2024/02/13 04:11:28;;;;;;;;;;;;;;;;;;4969634;28;5027;-66
2024/02/13 04:13:54;;;;;;;;;;;;;;;;;;4965272;28;4716;-65
2024/02/13 04:16:19;;;;;;;;;;;;;;;;;;4957034;28;5208;-65
2024/02/13 04:18:46;;;;;;;;;;;;;;;;;;4964394;28;4542;-66
2024/02/13 04:21:15;;;;;;;;;;;;;;;;;;4964200;28;5165;-64
2024/02/13 04:23:41;;;;;;;;;;;;;;;;;;4967538;28;3436;-66
2024/02/13 04:26:06;;;;;;;;;;;;;;;;;;4943256;28;4489;-65
2024/02/13 04:28:32;;;;;;;;;;;;;;;;;;4962595;28;4741;-63
2024/02/13 04:30:57;;;;;;;;;;;;;;;;;;4952245;28;5066;-64
2024/02/13 04:33:22;;;;;;;;;;;;;;;;;;4961345;28;5103;-64
2024/02/13 04:35:48;;;;;;;;;;;;;;;;;;4960015;28;4133;-65
2024/02/13 04:38:13;;;;;;;;;;;;;;;;;;4957039;28;4691;-66
2024/02/13 04:40:39;;;;;;;;;;;;;;;;;;4964868;28;5135;-64
2024/02/13 04:43:06;;;;;;;;;;;;;;;;;;4964906;28;5084;-65
2024/02/13 04:45:31;;;;;;;;;;;;;;;;;;4962407;28;5275;-65
2024/02/13 04:47:56;;;;;;;;;;;;;;;;;;4964392;28;3405;-64
2024/02/13 04:50:23;;;;;;;;;;;;;;;;;;4963322;28;5074;-61
2024/02/13 04:52:48;;;;;;;;;;;;;;;;;;4963001;28;4534;-65
2024/02/13 04:55:13;;;;;;;;;;;;;;;;;;4964292;28;4681;-63
2024/02/13 04:57:39;;;;;;;;;;;;;;;;;;4959922;28;5590;-65
2024/02/13 05:00:18;;;;;;;;;;;;;;;;;;4963106;28;3546;-66
2024/02/13 05:02:46;;;;;;;;;;;;;;;;;;4961408;28;5205;-66
2024/02/13 05:07:58;;;;;;;;;;;;;;;;;;4955200;28;4926;-66
2024/02/13 05:10:24;;;;;;;;;;;;;;;;;;4965228;28;4593;-66
2024/02/13 05:12:49;;;;;;;;;;;;;;;;;;4964161;28;4917;-65
2024/02/13 05:15:14;;;;;;;;;;;;;;;;;;4958360;28;5189;-62
2024/02/13 05:17:40;;;;;;;;;;;;;;;;;;4962082;28;3436;-64
2024/02/13 05:20:11;;;;;;;;;;;;;;;;;;4968157;28;4937;-66
2024/02/13 05:22:36;;;;;;;;;;;;;;;;;;4947632;28;5211;-65
2024/02/13 05:25:01;;;;;;;;;;;;;;;;;;4959893;28;5216;-66
2024/02/13 05:27:27;;;;;;;;;;;;;;;;;;4944110;28;5376;-66
2024/02/13 05:29:52;;;;;;;;;;;;;;;;;;4957586;28;1079;-66
2024/02/13 05:32:18;;;;;;;;;;;;;;;;;;4962917;28;4976;-65
2024/02/13 05:34:43;;;;;;;;;;;;;;;;;;4960177;28;4795;-65
2024/02/13 05:37:09;;;;;;;;;;;;;;;;;;4960884;28;4930;-66
2024/02/13 05:39:34;;;;;;;;;;;;;;;;;;4964336;28;5040;-67
2024/02/13 05:42:00;;;;;;;;;;;;;;;;;;4966729;28;1906;-66
2024/02/13 05:44:25;;;;;;;;;;;;;;;;;;4967048;28;4865;-66
2024/02/13 05:46:50;;;;;;;;;;;;;;;;;;4959312;28;5126;-66
2024/02/13 05:49:16;;;;;;;;;;;;;;;;;;4963339;28;5131;-66
2024/02/13 05:51:42;;;;;;;;;;;;;;;;;;4956594;28;5191;-66
2024/02/13 05:54:09;;;;;;;;;;;;;;;;;;4946458;28;3561;-64
2024/02/13 05:56:35;;;;;;;;;;;;;;;;;;4964341;28;4727;-66
2024/02/13 05:59:03;;;;;;;;;;;;;;;;;;4933724;28;5109;-65
2024/02/13 06:01:29;;;;;;;;;;;;;;;;;;4955020;28;5022;-65
2024/02/13 06:03:56;;;;;;;;;;;;;;;;;;4961824;28;5124;-65
2024/02/13 06:06:22;;;;;;;;;;;;;;;;;;4956652;28;4735;-64
2024/02/13 06:08:48;;;;;;;;;;;;;;;;;;4965081;28;3348;-66
2024/02/13 06:11:14;;;;;;;;;;;;;;;;;;4962772;28;5100;-66
2024/02/13 06:13:44;;;;;;;;;;;;;;;;;;4966066;28;5181;-65
2024/02/13 06:16:10;;;;;;;;;;;;;;;;;;4966161;28;4746;-65
2024/02/13 06:18:35;;;;;;;;;;;;;;;;;;4961709;28;4551;-66
2024/02/13 06:21:00;;;;;;;;;;;;;;;;;;4965509;28;3509;-62
2024/02/13 06:23:26;;;;;;;;;;;;;;;;;;4962813;28;4750;-67
2024/02/13 06:25:51;;;;;;;;;;;;;;;;;;4959490;28;5262;-64
2024/02/13 06:28:16;;;;;;;;;;;;;;;;;;4963579;28;5134;-61
2024/02/13 06:30:43;;;;;;;;;;;;;;;;;;4962268;28;5089;-66
2024/02/13 06:33:09;;;;;;;;;;;;;;;;;;4962923;28;4512;-66
2024/02/13 06:35:34;;;;;;;;;;;;;;;;;;4968916;28;3389;-69
2024/02/13 06:37:59;;;;;;;;;;;;;;;;;;4961546;28;5188;-66
2024/02/13 06:40:25;;;;;;;;;;;;;;;;;;4963554;28;4663;-65
2024/02/13 06:42:50;;;;;;;;;;;;;;;;;;4961542;28;4529;-64
2024/02/13 06:45:15;;;;;;;;;;;;;;;;;;4963158;28;5282;-60
2024/02/13 06:47:41;;;;;;;;;;;;;;;;;;4966550;28;3638;-60
2024/02/13 06:50:12;;;;;;;;;;;;;;;;;;4968854;28;5183;-59
2024/02/13 06:52:38;;;;;;;;;;;;;;;;;;4964387;28;5342;-59
2024/02/13 06:55:04;;;;;;;;;;;;;;;;;;4963552;28;5129;-59
2024/02/13 06:57:32;;;;;;;;;;;;;;;;;;4942353;28;4982;-58
2024/02/13 06:59:58;;;;;;;;;;;;;;;;;;4965915;28;3365;-58
2024/02/13 07:02:23;;;;;;;;;;;;;;;;;;4969479;28;5226;-60
2024/02/13 07:04:49;;;;;;;;;;;;;;;;;;4968805;28;5152;-59
2024/02/13 07:07:14;;;;;;;;;;;;;;;;;;4965113;28;5133;-58
2024/02/13 07:09:40;;;;;;;;;;;;;;;;;;4969405;28;5094;-59
2024/02/13 07:12:05;;;;;;;;;;;;;;;;;;4969414;28;3092;-58
2024/02/13 07:14:31;;;;;;;;;;;;;;;;;;4966737;28;5065;-61
2024/02/13 07:16:56;;;;;;;;;;;;;;;;;;4968456;28;4493;-58
2024/02/13 07:19:25;;;;;;;;;;;;;;;;;;4959954;28;5224;-58
2024/02/13 07:21:51;;;;;;;;;;;;;;;;;;4967921;28;4739;-59
2024/02/13 07:24:16;;;;;;;;;;;;;;;;;;4970456;28;5084;-57
2024/02/13 07:26:42;;;;;;;;;;;;;;;;;;4971171;28;1092;-60
2024/02/13 07:29:09;;;;;;;;;;;;;;;;;;4951986;28;4983;-59
2024/02/13 07:31:35;;;;;;;;;;;;;;;;;;4970415;28;4652;-59
2024/02/13 07:34:01;;;;;;;;;;;;;;;;;;4969421;28;4622;-58
2024/02/13 07:36:26;;;;;;;;;;;;;;;;;;4970060;28;5675;-59
2024/02/13 07:38:51;;;;;;;;;;;;;;;;;;4962404;28;3328;-58
2024/02/13 07:41:17;;;;;;;;;;;;;;;;;;4964347;28;4951;-59
2024/02/13 07:43:42;;;;;;;;;;;;;;;;;;4968609;28;4937;-59
2024/02/13 07:46:09;;;;;;;;;;;;;;;;;;4966690;28;4491;-59
2024/02/13 07:48:34;;;;;;;;;;;;;;;;;;4959805;28;5141;-59
2024/02/13 07:51:00;;;;;;;;;;;;;;;;;;4965260;28;1016;-59
2024/02/13 07:53:26;;;;;;;;;;;;;;;;;;4966595;28;4647;-59
2024/02/13 07:55:51;;;;;;;;;;;;;;;;;;4951677;28;5035;-59
2024/02/13 07:58:16;;;;;;;;;;;;;;;;;;4949563;28;5121;-58
2024/02/13 08:00:43;;;;;;;;;;;;;;;;;;4961049;28;5439;-59
2024/02/13 08:03:09;;;;;;;;;;;;;;;;;;4968318;28;4830;-58
2024/02/13 08:05:36;;;;;;;;;;;;;;;;;;4968981;28;3484;-59
2024/02/13 08:08:08;;;;;;;;;;;;;;;;;;4959926;28;4548;-58
2024/02/13 08:10:35;;;;;;;;;;;;;;;;;;4964848;28;5242;-59
2024/02/13 08:13:00;;;;;;;;;;;;;;;;;;4967068;28;5484;-59
2024/02/13 08:15:26;;;;;;;;;;;;;;;;;;4967207;28;4706;-59
2024/02/13 08:17:51;;;;;;;;;;;;;;;;;;4965362;28;3274;-59
2024/02/13 08:20:16;;;;;;;;;;;;;;;;;;4968205;28;5151;-59
2024/02/13 08:22:42;;;;;;;;;;;;;;;;;;4968790;28;4500;-59
2024/02/13 08:25:07;;;;;;;;;;;;;;;;;;4969539;28;4690;-60
2024/02/13 08:27:35;;;;;;;;;;;;;;;;;;4959366;28;4958;-60
2024/02/13 08:30:00;;;;;;;;;;;;;;;;;;4960021;28;1207;-60
2024/02/13 08:32:26;;;;;;;;;;;;;;;;;;4967123;28;5110;-60
2024/02/13 08:34:52;;;;;;;;;;;;;;;;;;4967841;28;5077;-60
2024/02/13 08:37:17;;;;;;;;;;;;;;;;;;4965895;28;4612;-58
2024/02/13 08:39:42;;;;;;;;;;;;;;;;;;4968866;28;5499;-59
2024/02/13 08:42:08;;;;;;;;;;;;;;;;;;4946832;28;5367;-57
2024/02/13 08:44:34;;;;;;;;;;;;;;;;;;4969908;28;1107;-58
2024/02/13 08:47:00;;;;;;;;;;;;;;;;;;4952653;28;4559;-58
2024/02/13 08:49:25;;;;;;;;;;;;;;;;;;4967063;28;4886;-58
2024/02/13 08:51:51;;;;;;;;;;;;;;;;;;4961751;28;5192;-58
2024/02/13 08:54:16;;;;;;;;;;;;;;;;;;4963165;28;5246;-58
2024/02/13 08:56:41;;;;;;;;;;;;;;;;;;4966771;28;3501;-58
2024/02/13 08:59:08;;;;;;;;;;;;;;;;;;4962444;28;5150;-59
2024/02/13 09:01:33;;;;;;;;;;;;;;;;;;4962404;28;5245;-58
2024/02/13 09:04:00;;;;;;;;;;;;;;;;;;4964767;28;4623;-59
2024/02/13 09:06:25;;;;;;;;;;;;;;;;;;4960478;28;5084;-58
2024/02/13 09:08:51;;;;;;;;;;;;;;;;;;4958246;28;3369;-58
2024/02/13 09:11:16;;;;;;;;;;;;;;;;;;4963165;28;4672;-58
2024/02/13 09:13:41;;;;;;;;;;;;;;;;;;4956136;28;5375;-58
2024/02/13 09:16:08;;;;;;;;;;;;;;;;;;4968991;28;5106;-59
2024/02/13 09:18:33;;;;;;;;;;;;;;;;;;4967977;28;5026;-58
2024/02/13 09:20:58;;;;;;;;;;;;;;;;;;4950825;28;2161;-58
2024/02/13 09:23:27;;;;;;;;;;;;;;;;;;4963629;28;4846;-58
2024/02/13 09:25:55;;;;;;;;;;;;;;;;;;4949990;28;5186;-59
2024/02/13 09:28:21;;;;;;;;;;;;;;;;;;4964088;28;5136;-59
2024/02/13 09:30:47;;;;;;;;;;;;;;;;;;4966438;28;4618;-58
2024/02/13 09:33:13;;;;;;;;;;;;;;;;;;4959509;28;5015;-62
2024/02/13 09:35:38;;;;;;;;;;;;;;;;;;4965373;28;3449;-59
2024/02/13 09:38:04;;;;;;;;;;;;;;;;;;4957957;28;5260;-59
2024/02/13 09:40:29;;;;;;;;;;;;;;;;;;4947707;28;4705;-59
2024/02/13 09:42:55;;;;;;;;;;;;;;;;;;4949835;28;4548;-59
2024/02/13 09:45:21;;;;;;;;;;;;;;;;;;4967719;28;5027;-59
2024/02/13 09:47:46;;;;;;;;;;;;;;;;;;4972842;28;1109;-59
2024/02/13 09:50:12;;;;;;;;;;;;;;;;;;4971361;28;5040;-59
2024/02/13 09:52:56;;;;;;;;;;;;;;;;;;4970847;28;4682;-59
2024/02/13 09:55:24;;;;;;;;;;;;;;;;;;4953243;28;5127;-59
2024/02/13 09:57:49;;;;;;;;;;;;;;;;;;4957531;28;5276;-59
2024/02/13 10:00:17;;;;;;;;;;;;;;;;;;4966365;28;4705;-57
2024/02/13 10:02:43;;;;;;;;;;;;;;;;;;4972571;28;1326;-59
2024/02/13 10:05:10;;;;;;;;;;;;;;;;;;4970817;28;5382;-59
2024/02/13 10:07:41;;;;;;;;;;;;;;;;;;4966585;28;5151;-59
2024/02/13 10:10:11;;;;;;;;;;;;;;;;;;4968278;28;4737;-59
2024/02/13 10:12:53;;;;;;;;;;;;;;;;;;4969691;28;4834;-59
2024/02/13 10:15:19;;;;;;;;;;;;;;;;;;4967288;28;5264;-59
2024/02/13 10:17:45;;;;;;;;;;;;;;;;;;4955719;28;1123;-59
2024/02/13 10:20:11;;;;;;;;;;;;;;;;;;4970766;28;5118;-58
2024/02/13 10:22:46;;;;;;;;;;;;;;;;;;4952100;28;4496;-59
2024/02/13 10:25:12;;;;;;;;;;;;;;;;;;4964763;28;4973;-59
2024/02/13 10:27:37;;;;;;;;;;;;;;;;;;4970558;28;5119;-59
2024/02/13 10:30:03;;;;;;;;;;;;;;;;;;4971428;28;1107;-59
2024/02/13 10:32:33;;;;;;;;;;;;;;;;;;4970640;28;5193;-58
2024/02/13 10:35:04;;;;;;;;;;;;;;;;;;4970762;28;5444;-59
2024/02/13 10:37:30;;;;;;;;;;;;;;;;;;4969437;28;5114;-59
2024/02/13 10:39:55;;;;;;;;;;;;;;;;;;4950103;28;5092;-59
2024/02/13 10:42:20;;;;;;;;;;;;;;;;;;4970192;28;4560;-59
2024/02/13 10:44:46;;;;;;;;;;;;;;;;;;4949469;28;3726;-59
2024/02/13 10:47:12;;;;;;;;;;;;;;;;;;4953261;28;5165;-59
2024/02/13 10:49:41;;;;;;;;;;;;;;;;;;4947608;28;4752;-59
2024/02/13 10:52:06;;;;;;;;;;;;;;;;;;4970424;28;4637;-59
2024/02/13 10:54:32;;;;;;;;;;;;;;;;;;4945675;28;4582;-60
2024/02/13 10:56:57;;;;;;;;;;;;;;;;;;4967608;28;3320;-59
2024/02/13 10:59:22;;;;;;;;;;;;;;;;;;4930591;28;4707;-59
2024/02/13 11:01:48;;;;;;;;;;;;;;;;;;4967889;28;5471;-59
2024/02/13 11:04:13;;;;;;;;;;;;;;;;;;4969460;28;4534;-59
2024/02/13 11:06:39;;;;;;;;;;;;;;;;;;4968481;28;5120;-59
2024/02/13 11:09:12;;;;;;;;;;;;;;;;;;4968203;28;1131;-59
2024/02/13 11:11:37;;;;;;;;;;;;;;;;;;4967013;28;5038;-59
2024/02/13 11:14:13;;;;;;;;;;;;;;;;;;4964157;28;5634;-60
2024/02/13 11:16:38;;;;;;;;;;;;;;;;;;4963839;28;5118;-59
2024/02/13 11:19:03;;;;;;;;;;;;;;;;;;4953164;28;5273;-60
2024/02/13 11:21:29;;;;;;;;;;;;;;;;;;4969950;28;5214;-59
2024/02/13 11:23:57;;;;;;;;;;;;;;;;;;4961707;28;3324;-60
2024/02/13 11:26:25;;;;;;;;;;;;;;;;;;4966122;28;4668;-59
2024/02/13 11:28:50;;;;;;;;;;;;;;;;;;4959710;28;5076;-59
2024/02/13 11:31:15;;;;;;;;;;;;;;;;;;4972948;28;4707;-60
2024/02/13 11:34:01;;;;;;;;;;;;;;;;;;4940542;29;5230;-59
2024/02/13 11:36:26;;;;;;;;;;;;;;;;;;4963109;28;5044;-60
2024/02/13 11:38:57;;;;;;;;;;;;;;;;;;4953147;28;1198;-59
2024/02/13 11:41:22;;;;;;;;;;;;;;;;;;4965972;28;4989;-60
2024/02/13 11:43:48;;;;;;;;;;;;;;;;;;4966178;28;4947;-59
2024/02/13 11:46:13;;;;;;;;;;;;;;;;;;4968800;28;4763;-59
2024/02/13 11:48:39;;;;;;;;;;;;;;;;;;4968975;28;4652;-60
2024/02/13 11:51:05;;;;;;;;;;;;;;;;;;4967529;28;3380;-60
2024/02/13 11:53:30;;;;;;;;;;;;;;;;;;4963143;28;5298;-59
2024/02/13 11:55:56;;;;;;;;;;;;;;;;;;4965186;28;4524;-59
2024/02/13 11:58:22;;;;;;;;;;;;;;;;;;4959204;28;5182;-59
2024/02/13 12:01:00;;;;;;;;;;;;;;;;;;4953022;28;5107;-60
2024/02/13 12:03:26;;;;;;;;;;;;;;;;;;4970108;28;5104;-60
2024/02/13 12:05:51;;;;;;;;;;;;;;;;;;4951414;28;3945;-59
2024/02/13 12:08:16;;;;;;;;;;;;;;;;;;4952848;28;5149;-59
2024/02/13 12:10:42;;;;;;;;;;;;;;;;;;4968722;28;4699;-59
2024/02/13 12:13:08;;;;;;;;;;;;;;;;;;4968202;28;4597;-59
2024/02/13 12:15:35;;;;;;;;;;;;;;;;;;4968835;28;4821;-59
2024/02/13 12:18:03;;;;;;;;;;;;;;;;;;4966976;28;3419;-59
2024/02/13 12:20:29;;;;;;;;;;;;;;;;;;4959634;28;4883;-58
2024/02/13 12:23:05;;;;;;;;;;;;;;;;;;4940722;28;4703;-59
2024/02/13 12:25:31;;;;;;;;;;;;;;;;;;4953790;28;5038;-59
2024/02/13 12:28:00;;;;;;;;;;;;;;;;;;4959416;28;4915;-58
2024/02/13 12:30:26;;;;;;;;;;;;;;;;;;4969520;28;4634;-59
2024/02/13 12:32:51;;;;;;;;;;;;;;;;;;4967875;28;1072;-59
2024/02/13 12:35:31;;;;;;;;;;;;;;;;;;4966389;28;4912;-59
2024/02/13 12:38:06;;;;;;;;;;;;;;;;;;4962305;28;5045;-58
2024/02/13 12:40:32;;;;;;;;;;;;;;;;;;4963198;28;5082;-59
2024/02/13 12:42:58;;;;;;;;;;;;;;;;;;4961599;28;5115;-59
2024/02/13 12:45:25;;;;;;;;;;;;;;;;;;4965612;28;4538;-59
2024/02/13 12:47:50;;;;;;;;;;;;;;;;;;4949895;28;1154;-59
2024/02/13 12:50:16;;;;;;;;;;;;;;;;;;4967598;28;5085;-59
2024/02/13 12:52:42;;;;;;;;;;;;;;;;;;4963735;28;5200;-59
2024/02/13 12:55:12;;;;;;;;;;;;;;;;;;4961317;28;5169;-59
2024/02/13 12:57:38;;;;;;;;;;;;;;;;;;4966837;28;4557;-59
2024/02/13 13:00:14;;;;;;;;;;;;;;;;;;4966894;28;3127;-59
2024/02/13 13:02:39;;;;;;;;;;;;;;;;;;4967440;28;5156;-59
2024/02/13 13:05:06;;;;;;;;;;;;;;;;;;4969236;28;5101;-59
2024/02/13 13:07:32;;;;;;;;;;;;;;;;;;4968580;28;5021;-59
2024/02/13 13:09:57;;;;;;;;;;;;;;;;;;4966964;28;4500;-59
2024/02/13 13:12:23;;;;;;;;;;;;;;;;;;4960253;28;5044;-59
2024/02/13 13:14:48;;;;;;;;;;;;;;;;;;4968727;28;3198;-59
2024/02/13 13:17:14;;;;;;;;;;;;;;;;;;4961160;28;5015;-59
2024/02/13 13:19:39;;;;;;;;;;;;;;;;;;4969153;28;5035;-59
2024/02/13 13:22:05;;;;;;;;;;;;;;;;;;4967775;28;4504;-59
2024/02/13 13:24:31;;;;;;;;;;;;;;;;;;4972839;28;4580;-59
2024/02/13 13:26:57;;;;;;;;;;;;;;;;;;4964312;28;1181;-60
2024/02/13 13:29:22;;;;;;;;;;;;;;;;;;4964363;28;5090;-59
2024/02/13 13:31:48;;;;;;;;;;;;;;;;;;4966112;28;4472;-62
2024/02/13 13:34:19;;;;;;;;;;;;;;;;;;4967661;28;5340;-59
2024/02/13 13:36:45;;;;;;;;;;;;;;;;;;4966330;28;5063;-59
2024/02/13 13:39:10;;;;;;;;;;;;;;;;;;4948718;28;4745;-59
2024/02/13 13:41:36;;;;;;;;;;;;;;;;;;4960400;28;3340;-59
2024/02/13 13:44:02;;;;;;;;;;;;;;;;;;4948728;28;4500;-59
2024/02/13 13:46:29;;;;;;;;;;;;;;;;;;4968221;28;4506;-60
2024/02/13 13:48:54;;;;;;;;;;;;;;;;;;4968680;28;5121;-59
2024/02/13 13:51:20;;;;;;;;;;;;;;;;;;4960656;28;5255;-60
2024/02/13 13:53:45;;;;;;;;;;;;;;;;;;4967796;28;1405;-59
2024/02/13 13:56:11;;;;;;;;;;;;;;;;;;4963713;28;5118;-59
2024/02/13 13:58:36;;;;;;;;;;;;;;;;;;4964658;28;4967;-60
2024/02/13 14:01:02;;;;;;;;;;;;;;;;;;4959577;28;5167;-59
2024/02/13 14:03:30;;;;;;;;;;;;;;;;;;4955822;28;4529;-60
2024/02/13 14:05:55;;;;;;;;;;;;;;;;;;4961666;28;1396;-60
2024/02/13 14:08:21;;;;;;;;;;;;;;;;;;4966657;28;4972;-59
2024/02/13 14:10:48;;;;;;;;;;;;;;;;;;4964249;28;5056;-59
2024/02/13 14:13:14;;;;;;;;;;;;;;;;;;4962478;28;5560;-59
2024/02/13 14:15:39;;;;;;;;;;;;;;;;;;4963863;28;5157;-59
2024/02/13 14:18:05;;;;;;;;;;;;;;;;;;4966761;28;3329;-60
2024/02/13 14:20:34;;;;;;;;;;;;;;;;;;4963640;28;4525;-59
2024/02/13 14:22:59;;;;;;;;;;;;;;;;;;4963224;28;5066;-59
2024/02/13 14:25:26;;;;;;;;;;;;;;;;;;4964739;28;4485;-60
2024/02/13 14:27:55;;;;;;;;;;;;;;;;;;4961660;28;5038;-61
2024/02/13 14:30:20;;;;;;;;;;;;;;;;;;4969693;28;4961;-59
2024/02/13 14:32:46;;;;;;;;;;;;;;;;;;4954534;28;1158;-60
2024/02/13 14:35:13;;;;;;;;;;;;;;;;;;4971362;28;4640;-60
2024/02/13 14:37:39;;;;;;;;;;;;;;;;;;4944705;28;5234;-60
2024/02/13 14:40:06;;;;;;;;;;;;;;;;;;4968000;28;4749;-60
2024/02/13 14:42:31;;;;;;;;;;;;;;;;;;4964525;28;5102;-59
2024/02/13 14:44:56;;;;;;;;;;;;;;;;;;4963620;28;3513;-60
2024/02/13 14:47:23;;;;;;;;;;;;;;;;;;4960913;28;5126;-59
2024/02/13 14:49:48;;;;;;;;;;;;;;;;;;4962483;28;4954;-60
2024/02/13 14:52:14;;;;;;;;;;;;;;;;;;4967558;28;5042;-60
2024/02/13 14:54:44;;;;;;;;;;;;;;;;;;4965616;28;4912;-59
2024/02/13 14:57:11;;;;;;;;;;;;;;;;;;4962023;28;5065;-58
2024/02/13 14:59:42;;;;;;;;;;;;;;;;;;4961270;28;3419;-60
2024/02/13 15:02:11;;;;;;;;;;;;;;;;;;4952064;28;4686;-60
2024/02/13 15:04:36;;;;;;;;;;;;;;;;;;4961930;28;4761;-60
2024/02/13 15:07:02;;;;;;;;;;;;;;;;;;4964723;28;4505;-59
2024/02/13 15:09:27;;;;;;;;;;;;;;;;;;4941260;28;5325;-60
2024/02/13 15:11:59;;;;;;;;;;;;;;;;;;4962459;28;3530;-59
2024/02/13 15:14:24;;;;;;;;;;;;;;;;;;4946522;28;5175;-59
2024/02/13 15:16:51;;;;;;;;;;;;;;;;;;4964888;28;5008;-59
2024/02/13 15:19:16;;;;;;;;;;;;;;;;;;4948148;28;4928;-60
2024/02/13 15:21:44;;;;;;;;;;;;;;;;;;4964361;28;4967;-60
2024/02/13 15:24:11;;;;;;;;;;;;;;;;;;4963823;28;4620;-60
2024/02/13 15:26:38;;;;;;;;;;;;;;;;;;4969235;28;1088;-60
2024/02/13 15:29:03;;;;;;;;;;;;;;;;;;4964671;28;4680;-60
2024/02/13 15:31:29;;;;;;;;;;;;;;;;;;4968184;28;4836;-60
2024/02/13 15:33:55;;;;;;;;;;;;;;;;;;4966508;28;4882;-60
2024/02/13 15:36:32;;;;;;;;;;;;;;;;;;4967112;28;5124;-59
2024/02/13 15:47:12;;;;;;;;;;;;;;;;;;4961891;28;4533;-60
2024/02/13 15:49:44;;;;;;;;;;;;;;;;;;4970406;28;4895;-59
2024/02/13 15:52:12;;;;;;;;;;;;;;;;;;4969838;28;5006;-60
2024/02/13 15:54:38;;;;;;;;;;;;;;;;;;4968026;28;5124;-59
2024/02/13 15:57:07;;;;;;;;;;;;;;;;;;4957481;28;3335;-60
2024/02/13 15:59:32;;;;;;;;;;;;;;;;;;4964377;28;5025;-59
2024/02/13 16:01:59;;;;;;;;;;;;;;;;;;4963105;28;4749;-59
2024/02/13 16:04:24;;;;;;;;;;;;;;;;;;4962990;28;4762;-60
2024/02/13 16:06:54;;;;;;;;;;;;;;;;;;4961325;28;5253;-59
2024/02/13 16:09:19;;;;;;;;;;;;;;;;;;4960110;28;5164;-60
2024/02/13 16:11:45;;;;;;;;;;;;;;;;;;4961237;28;3374;-59
2024/02/13 16:14:12;;;;;;;;;;;;;;;;;;4956911;28;4561;-60
2024/02/13 16:16:38;;;;;;;;;;;;;;;;;;4969020;28;5302;-60
2024/02/13 16:19:06;;;;;;;;;;;;;;;;;;4960618;28;4673;-61
2024/02/13 16:21:31;;;;;;;;;;;;;;;;;;4968670;28;4792;-60
2024/02/13 16:23:56;;;;;;;;;;;;;;;;;;4954842;28;3178;-60
2024/02/13 16:26:23;;;;;;;;;;;;;;;;;;4959402;28;4976;-60
2024/02/13 16:28:48;;;;;;;;;;;;;;;;;;4966972;28;4686;-60
2024/02/13 16:31:14;;;;;;;;;;;;;;;;;;4959566;28;5260;-59
2024/02/13 16:33:39;;;;;;;;;;;;;;;;;;4961699;28;4725;-60
2024/02/13 16:36:05;;;;;;;;;;;;;;;;;;4966693;28;3257;-59
2024/02/13 16:38:30;;;;;;;;;;;;;;;;;;4968065;28;5010;-60
2024/02/13 16:40:55;;;;;;;;;;;;;;;;;;4967692;28;5039;-59
2024/02/13 16:43:21;;;;;;;;;;;;;;;;;;4966837;28;4997;-61
2024/02/13 16:45:47;;;;;;;;;;;;;;;;;;4967595;28;4529;-60
2024/02/13 16:48:12;;;;;;;;;;;;;;;;;;4966392;28;5020;-60
2024/02/13 16:50:38;;;;;;;;;;;;;;;;;;4969127;28;1149;-60
2024/02/13 16:53:06;;;;;;;;;;;;;;;;;;4963684;28;5107;-61
2024/02/13 16:55:32;;;;;;;;;;;;;;;;;;4958774;28;5160;-60
2024/02/13 16:57:58;;;;;;;;;;;;;;;;;;4957171;28;5153;-60
2024/02/13 17:00:24;;;;;;;;;;;;;;;;;;4959533;28;5355;-59
2024/02/13 17:02:50;;;;;;;;;;;;;;;;;;4959418;28;3336;-59
2024/02/13 17:05:15;;;;;;;;;;;;;;;;;;4943704;28;4493;-60
2024/02/13 17:07:41;;;;;;;;;;;;;;;;;;4967442;28;4902;-60